sensor_id;sensor_type;location;lat;lon;timestamp;temperature;humidity
69626;DHT22;56847;51.984;5.088;2023-03-16T00:00:16;8.60;64.90
69626;DHT22;56847;51.984;5.088;2023-03-16T00:02:43;8.60;64.90
69626;DHT22;56847;51.984;5.088;2023-03-16T00:05:12;8.60;64.80
69626;DHT22;56847;51.984;5.088;2023-03-16T00:07:39;8.60;64.90
69626;DHT22;56847;51.984;5.088;2023-03-16T00:10:11;8.60;65.10
69626;DHT22;56847;51.984;5.088;2023-03-16T00:12:39;8.60;65.10
69626;DHT22;56847;51.984;5.088;2023-03-16T00:15:10;8.60;65.20
69626;DHT22;56847;51.984;5.088;2023-03-16T00:17:37;8.60;65.20
69626;DHT22;56847;51.984;5.088;2023-03-16T00:20:05;8.60;65.30
69626;DHT22;56847;51.984;5.088;2023-03-16T00:22:33;8.60;65.40
69626;DHT22;56847;51.984;5.088;2023-03-16T00:25:00;8.60;65.50
69626;DHT22;56847;51.984;5.088;2023-03-16T00:27:27;8.60;65.60
69626;DHT22;56847;51.984;5.088;2023-03-16T00:29:54;8.70;65.60
69626;DHT22;56847;51.984;5.088;2023-03-16T00:32:29;8.70;65.60
69626;DHT22;56847;51.984;5.088;2023-03-16T00:34:58;8.70;65.60
69626;DHT22;56847;51.984;5.088;2023-03-16T00:37:25;8.70;65.70
69626;DHT22;56847;51.984;5.088;2023-03-16T00:39:53;8.70;65.60
69626;DHT22;56847;51.984;5.088;2023-03-16T00:42:26;8.70;65.70
69626;DHT22;56847;51.984;5.088;2023-03-16T00:44:54;8.70;65.80
69626;DHT22;56847;51.984;5.088;2023-03-16T00:47:25;8.70;65.90
69626;DHT22;56847;51.984;5.088;2023-03-16T00:49:54;8.70;65.90
69626;DHT22;56847;51.984;5.088;2023-03-16T00:52:21;8.70;65.90
69626;DHT22;56847;51.984;5.088;2023-03-16T00:54:49;8.70;66.10
69626;DHT22;56847;51.984;5.088;2023-03-16T00:57:20;8.70;66.10
69626;DHT22;56847;51.984;5.088;2023-03-16T00:59:48;8.70;66.20
69626;DHT22;56847;51.984;5.088;2023-03-16T01:02:16;8.70;66.20
69626;DHT22;56847;51.984;5.088;2023-03-16T01:04:45;8.70;66.20
69626;DHT22;56847;51.984;5.088;2023-03-16T01:07:13;8.70;66.20
69626;DHT22;56847;51.984;5.088;2023-03-16T01:09:42;8.70;66.30
69626;DHT22;56847;51.984;5.088;2023-03-16T01:12:16;8.70;66.30
69626;DHT22;56847;51.984;5.088;2023-03-16T01:14:44;8.70;66.50
69626;DHT22;56847;51.984;5.088;2023-03-16T01:17:13;8.70;66.50
69626;DHT22;56847;51.984;5.088;2023-03-16T01:19:42;8.70;66.50
69626;DHT22;56847;51.984;5.088;2023-03-16T01:22:10;8.70;66.30
69626;DHT22;56847;51.984;5.088;2023-03-16T01:24:38;8.70;66.50
69626;DHT22;56847;51.984;5.088;2023-03-16T01:27:07;8.70;66.60
69626;DHT22;56847;51.984;5.088;2023-03-16T01:29:35;8.70;66.70
69626;DHT22;56847;51.984;5.088;2023-03-16T01:32:04;8.70;66.80
69626;DHT22;56847;51.984;5.088;2023-03-16T01:34:32;8.70;66.90
69626;DHT22;56847;51.984;5.088;2023-03-16T01:36:59;8.70;67.00
69626;DHT22;56847;51.984;5.088;2023-03-16T01:39:35;8.70;67.00
69626;DHT22;56847;51.984;5.088;2023-03-16T01:42:02;8.70;67.10
69626;DHT22;56847;51.984;5.088;2023-03-16T01:44:55;8.70;67.20
69626;DHT22;56847;51.984;5.088;2023-03-16T01:47:28;8.70;67.20
69626;DHT22;56847;51.984;5.088;2023-03-16T01:49:55;8.80;67.30
69626;DHT22;56847;51.984;5.088;2023-03-16T01:52:32;8.80;67.30
69626;DHT22;56847;51.984;5.088;2023-03-16T01:55:06;8.80;67.40
69626;DHT22;56847;51.984;5.088;2023-03-16T01:57:38;8.70;67.50
69626;DHT22;56847;51.984;5.088;2023-03-16T02:02:54;8.70;67.60
69626;DHT22;56847;51.984;5.088;2023-03-16T02:05:53;8.70;67.70
69626;DHT22;56847;51.984;5.088;2023-03-16T02:08:24;8.70;67.90
69626;DHT22;56847;51.984;5.088;2023-03-16T02:10:54;8.80;68.00
69626;DHT22;56847;51.984;5.088;2023-03-16T02:13:31;8.70;68.10
69626;DHT22;56847;51.984;5.088;2023-03-16T02:16:07;8.70;68.10
69626;DHT22;56847;51.984;5.088;2023-03-16T02:18:35;8.70;68.30
69626;DHT22;56847;51.984;5.088;2023-03-16T02:23:32;8.80;68.40
69626;DHT22;56847;51.984;5.088;2023-03-16T02:31:46;8.80;68.60
69626;DHT22;56847;51.984;5.088;2023-03-16T02:34:16;8.70;68.70
69626;DHT22;56847;51.984;5.088;2023-03-16T02:36:45;8.70;68.80
69626;DHT22;56847;51.984;5.088;2023-03-16T02:39:16;8.70;68.90
69626;DHT22;56847;51.984;5.088;2023-03-16T02:41:45;8.70;69.00
69626;DHT22;56847;51.984;5.088;2023-03-16T02:44:17;8.70;69.00
69626;DHT22;56847;51.984;5.088;2023-03-16T02:46:47;8.70;69.00
69626;DHT22;56847;51.984;5.088;2023-03-16T02:49:20;8.70;69.10
69626;DHT22;56847;51.984;5.088;2023-03-16T02:51:51;8.70;69.20
69626;DHT22;56847;51.984;5.088;2023-03-16T02:54:18;8.70;69.20
69626;DHT22;56847;51.984;5.088;2023-03-16T02:56:45;8.70;69.40
69626;DHT22;56847;51.984;5.088;2023-03-16T02:59:13;8.70;69.40
69626;DHT22;56847;51.984;5.088;2023-03-16T03:01:40;8.70;69.40
69626;DHT22;56847;51.984;5.088;2023-03-16T03:04:11;8.70;69.50
69626;DHT22;56847;51.984;5.088;2023-03-16T03:06:39;8.70;69.60
69626;DHT22;56847;51.984;5.088;2023-03-16T03:09:09;8.70;69.70
69626;DHT22;56847;51.984;5.088;2023-03-16T03:11:41;8.70;69.70
69626;DHT22;56847;51.984;5.088;2023-03-16T03:14:09;8.70;69.80
69626;DHT22;56847;51.984;5.088;2023-03-16T03:16:38;8.70;69.90
69626;DHT22;56847;51.984;5.088;2023-03-16T03:19:05;8.70;69.90
69626;DHT22;56847;51.984;5.088;2023-03-16T03:21:35;8.70;70.00
69626;DHT22;56847;51.984;5.088;2023-03-16T03:24:02;8.70;70.00
69626;DHT22;56847;51.984;5.088;2023-03-16T03:26:33;8.70;70.10
69626;DHT22;56847;51.984;5.088;2023-03-16T03:29:01;8.70;70.20
69626;DHT22;56847;51.984;5.088;2023-03-16T03:31:28;8.70;70.20
69626;DHT22;56847;51.984;5.088;2023-03-16T03:33:56;8.70;70.20
69626;DHT22;56847;51.984;5.088;2023-03-16T03:36:23;8.70;70.30
69626;DHT22;56847;51.984;5.088;2023-03-16T03:38:50;8.70;70.40
69626;DHT22;56847;51.984;5.088;2023-03-16T03:41:18;8.70;70.50
69626;DHT22;56847;51.984;5.088;2023-03-16T03:43:45;8.70;70.50
69626;DHT22;56847;51.984;5.088;2023-03-16T03:46:15;8.70;70.60
69626;DHT22;56847;51.984;5.088;2023-03-16T03:48:45;8.70;70.60
69626;DHT22;56847;51.984;5.088;2023-03-16T03:51:12;8.70;70.80
69626;DHT22;56847;51.984;5.088;2023-03-16T03:53:44;8.60;70.70
69626;DHT22;56847;51.984;5.088;2023-03-16T03:56:19;8.60;70.90
69626;DHT22;56847;51.984;5.088;2023-03-16T03:58:47;8.60;71.00
69626;DHT22;56847;51.984;5.088;2023-03-16T04:01:22;8.60;71.10
69626;DHT22;56847;51.984;5.088;2023-03-16T04:03:49;8.60;71.10
69626;DHT22;56847;51.984;5.088;2023-03-16T04:06:17;8.60;71.20
69626;DHT22;56847;51.984;5.088;2023-03-16T04:08:44;8.60;71.20
69626;DHT22;56847;51.984;5.088;2023-03-16T04:11:14;8.60;71.40
69626;DHT22;56847;51.984;5.088;2023-03-16T04:13:41;8.60;71.40
69626;DHT22;56847;51.984;5.088;2023-03-16T04:16:09;8.60;71.50
69626;DHT22;56847;51.984;5.088;2023-03-16T04:18:41;8.60;71.60
69626;DHT22;56847;51.984;5.088;2023-03-16T04:21:14;8.60;71.70
69626;DHT22;56847;51.984;5.088;2023-03-16T04:23:44;8.60;71.80
69626;DHT22;56847;51.984;5.088;2023-03-16T04:26:11;8.60;71.80
69626;DHT22;56847;51.984;5.088;2023-03-16T04:28:41;8.50;71.80
69626;DHT22;56847;51.984;5.088;2023-03-16T04:31:12;8.60;71.90
69626;DHT22;56847;51.984;5.088;2023-03-16T04:33:43;8.50;72.00
69626;DHT22;56847;51.984;5.088;2023-03-16T04:36:10;8.60;72.10
69626;DHT22;56847;51.984;5.088;2023-03-16T04:38:38;8.50;72.10
69626;DHT22;56847;51.984;5.088;2023-03-16T04:41:06;8.50;72.10
69626;DHT22;56847;51.984;5.088;2023-03-16T04:43:37;8.60;72.10
69626;DHT22;56847;51.984;5.088;2023-03-16T04:46:11;8.50;72.20
69626;DHT22;56847;51.984;5.088;2023-03-16T04:48:38;8.60;72.30
69626;DHT22;56847;51.984;5.088;2023-03-16T04:51:05;8.60;72.30
69626;DHT22;56847;51.984;5.088;2023-03-16T04:53:36;8.60;72.40
69626;DHT22;56847;51.984;5.088;2023-03-16T04:56:12;8.60;72.30
69626;DHT22;56847;51.984;5.088;2023-03-16T04:58:49;8.60;72.30
69626;DHT22;56847;51.984;5.088;2023-03-16T05:01:18;8.50;72.40
69626;DHT22;56847;51.984;5.088;2023-03-16T05:03:47;8.50;72.50
69626;DHT22;56847;51.984;5.088;2023-03-16T05:06:16;8.50;72.60
69626;DHT22;56847;51.984;5.088;2023-03-16T05:08:44;8.50;72.60
69626;DHT22;56847;51.984;5.088;2023-03-16T05:11:11;8.50;72.60
69626;DHT22;56847;51.984;5.088;2023-03-16T05:13:46;8.60;72.60
69626;DHT22;56847;51.984;5.088;2023-03-16T05:16:14;8.60;72.60
69626;DHT22;56847;51.984;5.088;2023-03-16T05:18:41;8.60;72.70
69626;DHT22;56847;51.984;5.088;2023-03-16T05:21:08;8.60;72.70
69626;DHT22;56847;51.984;5.088;2023-03-16T05:23:52;8.60;72.70
69626;DHT22;56847;51.984;5.088;2023-03-16T05:26:20;8.50;72.70
69626;DHT22;56847;51.984;5.088;2023-03-16T05:28:46;8.50;72.80
69626;DHT22;56847;51.984;5.088;2023-03-16T05:31:17;8.50;73.00
69626;DHT22;56847;51.984;5.088;2023-03-16T05:33:49;8.50;73.00
69626;DHT22;56847;51.984;5.088;2023-03-16T05:36:19;8.50;73.10
69626;DHT22;56847;51.984;5.088;2023-03-16T05:38:50;8.50;73.10
69626;DHT22;56847;51.984;5.088;2023-03-16T05:41:41;8.40;73.10
69626;DHT22;56847;51.984;5.088;2023-03-16T05:44:23;8.40;73.20
69626;DHT22;56847;51.984;5.088;2023-03-16T05:47:07;8.40;73.40
69626;DHT22;56847;51.984;5.088;2023-03-16T05:49:38;8.40;73.50
69626;DHT22;56847;51.984;5.088;2023-03-16T05:52:10;8.40;73.50
69626;DHT22;56847;51.984;5.088;2023-03-16T05:54:38;8.40;73.60
69626;DHT22;56847;51.984;5.088;2023-03-16T05:57:08;8.40;73.60
69626;DHT22;56847;51.984;5.088;2023-03-16T05:59:35;8.40;73.60
69626;DHT22;56847;51.984;5.088;2023-03-16T06:02:04;8.40;73.60
69626;DHT22;56847;51.984;5.088;2023-03-16T06:04:31;8.40;73.80
69626;DHT22;56847;51.984;5.088;2023-03-16T06:06:59;8.40;73.80
69626;DHT22;56847;51.984;5.088;2023-03-16T06:09:27;8.40;73.90
69626;DHT22;56847;51.984;5.088;2023-03-16T06:11:54;8.40;74.00
69626;DHT22;56847;51.984;5.088;2023-03-16T06:14:21;8.40;74.00
69626;DHT22;56847;51.984;5.088;2023-03-16T06:16:51;8.50;74.10
69626;DHT22;56847;51.984;5.088;2023-03-16T06:19:18;8.50;74.10
69626;DHT22;56847;51.984;5.088;2023-03-16T06:21:49;8.50;74.10
69626;DHT22;56847;51.984;5.088;2023-03-16T06:24:17;8.50;74.20
69626;DHT22;56847;51.984;5.088;2023-03-16T06:26:44;8.50;74.20
69626;DHT22;56847;51.984;5.088;2023-03-16T06:29:12;8.60;74.20
69626;DHT22;56847;51.984;5.088;2023-03-16T06:31:40;8.60;74.10
69626;DHT22;56847;51.984;5.088;2023-03-16T06:34:07;8.60;74.00
69626;DHT22;56847;51.984;5.088;2023-03-16T06:36:34;8.60;74.10
69626;DHT22;56847;51.984;5.088;2023-03-16T06:39:02;8.60;74.10
69626;DHT22;56847;51.984;5.088;2023-03-16T06:41:39;8.60;74.10
69626;DHT22;56847;51.984;5.088;2023-03-16T06:44:09;8.60;74.10
69626;DHT22;56847;51.984;5.088;2023-03-16T06:46:42;8.70;74.10
69626;DHT22;56847;51.984;5.088;2023-03-16T06:49:09;8.70;74.10
69626;DHT22;56847;51.984;5.088;2023-03-16T06:51:37;8.70;74.10
69626;DHT22;56847;51.984;5.088;2023-03-16T06:54:04;8.70;74.10
69626;DHT22;56847;51.984;5.088;2023-03-16T06:56:32;8.70;74.20
69626;DHT22;56847;51.984;5.088;2023-03-16T06:58:59;8.70;74.30
69626;DHT22;56847;51.984;5.088;2023-03-16T07:01:27;8.70;74.40
69626;DHT22;56847;51.984;5.088;2023-03-16T07:03:59;8.70;74.40
69626;DHT22;56847;51.984;5.088;2023-03-16T07:06:30;8.80;74.50
69626;DHT22;56847;51.984;5.088;2023-03-16T07:08:57;8.80;74.50
69626;DHT22;56847;51.984;5.088;2023-03-16T07:11:27;8.90;74.30
69626;DHT22;56847;51.984;5.088;2023-03-16T07:13:56;8.90;74.40
69626;DHT22;56847;51.984;5.088;2023-03-16T07:16:25;8.90;74.30
69626;DHT22;56847;51.984;5.088;2023-03-16T07:18:56;9.00;74.40
69626;DHT22;56847;51.984;5.088;2023-03-16T07:21:24;9.00;74.30
69626;DHT22;56847;51.984;5.088;2023-03-16T07:23:51;9.00;74.30
69626;DHT22;56847;51.984;5.088;2023-03-16T07:26:23;9.00;74.20
69626;DHT22;56847;51.984;5.088;2023-03-16T07:28:54;9.10;74.20
69626;DHT22;56847;51.984;5.088;2023-03-16T07:31:24;9.10;74.10
69626;DHT22;56847;51.984;5.088;2023-03-16T07:33:52;9.10;74.10
69626;DHT22;56847;51.984;5.088;2023-03-16T07:36:28;9.20;74.00
69626;DHT22;56847;51.984;5.088;2023-03-16T07:38:58;9.10;73.90
69626;DHT22;56847;51.984;5.088;2023-03-16T07:41:25;9.20;73.90
69626;DHT22;56847;51.984;5.088;2023-03-16T07:43:52;9.10;73.80
69626;DHT22;56847;51.984;5.088;2023-03-16T07:46:23;9.20;73.80
69626;DHT22;56847;51.984;5.088;2023-03-16T07:48:50;9.20;73.80
69626;DHT22;56847;51.984;5.088;2023-03-16T07:51:20;9.20;73.80
69626;DHT22;56847;51.984;5.088;2023-03-16T07:53:48;9.30;73.90
69626;DHT22;56847;51.984;5.088;2023-03-16T07:56:20;9.30;74.00
69626;DHT22;56847;51.984;5.088;2023-03-16T07:58:51;9.40;73.90
69626;DHT22;56847;51.984;5.088;2023-03-16T08:01:18;9.50;73.80
69626;DHT22;56847;51.984;5.088;2023-03-16T08:03:47;9.60;73.70
69626;DHT22;56847;51.984;5.088;2023-03-16T08:06:14;9.70;73.60
69626;DHT22;56847;51.984;5.088;2023-03-16T08:08:41;9.80;73.40
69626;DHT22;56847;51.984;5.088;2023-03-16T08:11:14;9.90;73.20
69626;DHT22;56847;51.984;5.088;2023-03-16T08:13:54;10.00;73.00
69626;DHT22;56847;51.984;5.088;2023-03-16T08:16:25;10.00;72.70
69626;DHT22;56847;51.984;5.088;2023-03-16T08:18:55;10.00;72.50
69626;DHT22;56847;51.984;5.088;2023-03-16T08:21:23;10.10;72.20
69626;DHT22;56847;51.984;5.088;2023-03-16T08:23:50;10.10;71.90
69626;DHT22;56847;51.984;5.088;2023-03-16T08:26:20;10.10;72.00
69626;DHT22;56847;51.984;5.088;2023-03-16T08:28:51;10.10;71.90
69626;DHT22;56847;51.984;5.088;2023-03-16T08:31:19;10.10;71.80
69626;DHT22;56847;51.984;5.088;2023-03-16T08:34:05;10.10;71.60
69626;DHT22;56847;51.984;5.088;2023-03-16T08:36:38;10.10;71.40
69626;DHT22;56847;51.984;5.088;2023-03-16T08:39:05;10.10;71.40
69626;DHT22;56847;51.984;5.088;2023-03-16T08:41:41;10.20;71.40
69626;DHT22;56847;51.984;5.088;2023-03-16T08:44:19;10.30;71.00
69626;DHT22;56847;51.984;5.088;2023-03-16T08:46:47;10.30;70.90
69626;DHT22;56847;51.984;5.088;2023-03-16T08:49:18;10.40;70.30
69626;DHT22;56847;51.984;5.088;2023-03-16T08:51:57;10.40;70.10
69626;DHT22;56847;51.984;5.088;2023-03-16T08:54:26;10.40;69.70
69626;DHT22;56847;51.984;5.088;2023-03-16T08:56:53;10.40;69.60
69626;DHT22;56847;51.984;5.088;2023-03-16T08:59:20;10.40;69.50
69626;DHT22;56847;51.984;5.088;2023-03-16T09:01:56;10.30;69.30
69626;DHT22;56847;51.984;5.088;2023-03-16T09:04:23;10.30;69.50
69626;DHT22;56847;51.984;5.088;2023-03-16T09:06:50;10.30;69.30
69626;DHT22;56847;51.984;5.088;2023-03-16T09:09:34;10.30;69.50
69626;DHT22;56847;51.984;5.088;2023-03-16T09:12:01;10.40;69.60
69626;DHT22;56847;51.984;5.088;2023-03-16T09:14:29;10.50;69.60
69626;DHT22;56847;51.984;5.088;2023-03-16T09:16:57;10.60;69.90
69626;DHT22;56847;51.984;5.088;2023-03-16T09:19:24;10.80;69.50
69626;DHT22;56847;51.984;5.088;2023-03-16T09:21:51;10.90;69.10
69626;DHT22;56847;51.984;5.088;2023-03-16T09:24:20;11.00;68.60
69626;DHT22;56847;51.984;5.088;2023-03-16T09:26:46;11.10;68.50
69626;DHT22;56847;51.984;5.088;2023-03-16T09:29:13;11.20;68.20
69626;DHT22;56847;51.984;5.088;2023-03-16T09:31:40;11.30;67.80
69626;DHT22;56847;51.984;5.088;2023-03-16T09:34:07;11.40;67.60
69626;DHT22;56847;51.984;5.088;2023-03-16T09:36:35;11.50;67.20
69626;DHT22;56847;51.984;5.088;2023-03-16T09:39:04;11.50;67.30
69626;DHT22;56847;51.984;5.088;2023-03-16T09:41:50;11.60;66.70
69626;DHT22;56847;51.984;5.088;2023-03-16T09:44:33;11.60;67.00
69626;DHT22;56847;51.984;5.088;2023-03-16T09:47:03;11.70;66.30
69626;DHT22;56847;51.984;5.088;2023-03-16T09:50:03;11.70;66.20
69626;DHT22;56847;51.984;5.088;2023-03-16T09:52:47;11.80;65.90
69626;DHT22;56847;51.984;5.088;2023-03-16T09:55:27;11.80;65.80
69626;DHT22;56847;51.984;5.088;2023-03-16T09:57:58;11.80;65.80
69626;DHT22;56847;51.984;5.088;2023-03-16T10:00:30;11.90;65.60
69626;DHT22;56847;51.984;5.088;2023-03-16T10:03:14;11.90;65.80
69626;DHT22;56847;51.984;5.088;2023-03-16T10:05:46;12.00;64.70
69626;DHT22;56847;51.984;5.088;2023-03-16T10:08:20;12.10;65.20
69626;DHT22;56847;51.984;5.088;2023-03-16T10:16:00;12.60;64.80
69626;DHT22;56847;51.984;5.088;2023-03-16T10:18:34;12.70;64.60
69626;DHT22;56847;51.984;5.088;2023-03-16T10:21:09;12.80;63.90
69626;DHT22;56847;51.984;5.088;2023-03-16T10:23:36;12.90;63.70
69626;DHT22;56847;51.984;5.088;2023-03-16T10:26:17;13.10;63.90
69626;DHT22;56847;51.984;5.088;2023-03-16T10:28:46;13.30;63.80
69626;DHT22;56847;51.984;5.088;2023-03-16T10:31:16;13.40;63.60
69626;DHT22;56847;51.984;5.088;2023-03-16T10:33:45;13.70;63.20
69626;DHT22;56847;51.984;5.088;2023-03-16T10:36:30;13.80;62.70
69626;DHT22;56847;51.984;5.088;2023-03-16T10:39:01;13.90;61.70
69626;DHT22;56847;51.984;5.088;2023-03-16T10:41:30;14.00;61.60
69626;DHT22;56847;51.984;5.088;2023-03-16T10:46:45;14.30;60.60
69626;DHT22;56847;51.984;5.088;2023-03-16T10:49:27;14.40;60.60
69626;DHT22;56847;51.984;5.088;2023-03-16T10:51:56;14.40;59.90
69626;DHT22;56847;51.984;5.088;2023-03-16T10:54:33;14.40;58.90
69626;DHT22;56847;51.984;5.088;2023-03-16T10:57:13;14.50;58.10
69626;DHT22;56847;51.984;5.088;2023-03-16T10:59:46;14.60;58.70
69626;DHT22;56847;51.984;5.088;2023-03-16T11:02:19;14.60;58.20
69626;DHT22;56847;51.984;5.088;2023-03-16T11:04:49;14.70;58.00
69626;DHT22;56847;51.984;5.088;2023-03-16T11:07:18;14.80;57.20
69626;DHT22;56847;51.984;5.088;2023-03-16T11:09:45;14.80;57.30
69626;DHT22;56847;51.984;5.088;2023-03-16T11:12:26;14.80;57.30
69626;DHT22;56847;51.984;5.088;2023-03-16T11:15:12;14.80;57.00
69626;DHT22;56847;51.984;5.088;2023-03-16T11:17:51;15.00;56.40
69626;DHT22;56847;51.984;5.088;2023-03-16T11:20:26;15.00;56.30
69626;DHT22;56847;51.984;5.088;2023-03-16T11:22:54;15.10;56.20
69626;DHT22;56847;51.984;5.088;2023-03-16T11:25:38;15.30;56.20
69626;DHT22;56847;51.984;5.088;2023-03-16T11:28:15;15.30;55.30
69626;DHT22;56847;51.984;5.088;2023-03-16T11:33:17;15.50;53.60
69626;DHT22;56847;51.984;5.088;2023-03-16T11:39:08;15.60;53.50
69626;DHT22;56847;51.984;5.088;2023-03-16T11:44:32;15.80;53.30
69626;DHT22;56847;51.984;5.088;2023-03-16T11:50:16;15.80;52.70
69626;DHT22;56847;51.984;5.088;2023-03-16T11:53:12;15.90;51.70
69626;DHT22;56847;51.984;5.088;2023-03-16T12:00:50;16.20;52.70
69626;DHT22;56847;51.984;5.088;2023-03-16T12:03:53;16.20;52.80
69626;DHT22;56847;51.984;5.088;2023-03-16T12:12:27;16.50;51.60
69626;DHT22;56847;51.984;5.088;2023-03-16T12:17:47;16.60;51.20
69626;DHT22;56847;51.984;5.088;2023-03-16T12:20:21;16.70;50.60
69626;DHT22;56847;51.984;5.088;2023-03-16T12:23:08;16.80;51.20
69626;DHT22;56847;51.984;5.088;2023-03-16T12:25:38;16.70;49.90
69626;DHT22;56847;51.984;5.088;2023-03-16T12:28:23;16.70;49.40
69626;DHT22;56847;51.984;5.088;2023-03-16T12:47:00;16.70;48.60
69626;DHT22;56847;51.984;5.088;2023-03-16T12:49:33;16.70;49.40
69626;DHT22;56847;51.984;5.088;2023-03-16T12:52:05;16.80;49.00
69626;DHT22;56847;51.984;5.088;2023-03-16T12:54:33;16.80;48.30
69626;DHT22;56847;51.984;5.088;2023-03-16T12:57:07;16.80;48.30
69626;DHT22;56847;51.984;5.088;2023-03-16T12:59:41;16.90;48.10
69626;DHT22;56847;51.984;5.088;2023-03-16T13:02:28;17.10;48.70
69626;DHT22;56847;51.984;5.088;2023-03-16T13:05:11;17.20;48.40
69626;DHT22;56847;51.984;5.088;2023-03-16T13:07:50;17.20;47.80
69626;DHT22;56847;51.984;5.088;2023-03-16T13:10:19;17.20;47.50
69626;DHT22;56847;51.984;5.088;2023-03-16T13:12:47;17.20;47.10
69626;DHT22;56847;51.984;5.088;2023-03-16T13:18:01;17.60;46.10
69626;DHT22;56847;51.984;5.088;2023-03-16T13:20:30;17.60;45.70
69626;DHT22;56847;51.984;5.088;2023-03-16T13:26:01;17.60;46.20
69626;DHT22;56847;51.984;5.088;2023-03-16T13:28:31;17.70;46.10
69626;DHT22;56847;51.984;5.088;2023-03-16T13:30:59;17.60;46.00
69626;DHT22;56847;51.984;5.088;2023-03-16T13:33:29;17.50;45.70
69626;DHT22;56847;51.984;5.088;2023-03-16T13:35:58;17.60;46.00
69626;DHT22;56847;51.984;5.088;2023-03-16T13:38:26;17.70;45.50
69626;DHT22;56847;51.984;5.088;2023-03-16T13:41:02;17.60;44.40
69626;DHT22;56847;51.984;5.088;2023-03-16T13:43:33;17.50;45.50
69626;DHT22;56847;51.984;5.088;2023-03-16T13:46:18;17.50;45.10
69626;DHT22;56847;51.984;5.088;2023-03-16T13:48:47;17.40;45.20
69626;DHT22;56847;51.984;5.088;2023-03-16T13:51:19;17.40;45.30
69626;DHT22;56847;51.984;5.088;2023-03-16T13:53:48;17.30;45.40
69626;DHT22;56847;51.984;5.088;2023-03-16T13:56:21;17.30;45.40
69626;DHT22;56847;51.984;5.088;2023-03-16T13:58:50;17.30;45.40
69626;DHT22;56847;51.984;5.088;2023-03-16T14:01:28;17.30;45.50
69626;DHT22;56847;51.984;5.088;2023-03-16T14:03:59;17.20;45.30
69626;DHT22;56847;51.984;5.088;2023-03-16T14:06:31;17.20;45.20
69626;DHT22;56847;51.984;5.088;2023-03-16T14:09:05;17.10;45.00
69626;DHT22;56847;51.984;5.088;2023-03-16T14:11:34;17.10;45.30
69626;DHT22;56847;51.984;5.088;2023-03-16T14:14:16;17.10;45.60
69626;DHT22;56847;51.984;5.088;2023-03-16T14:16:45;17.20;45.50
69626;DHT22;56847;51.984;5.088;2023-03-16T14:21:45;17.10;45.10
69626;DHT22;56847;51.984;5.088;2023-03-16T14:24:32;17.10;45.50
69626;DHT22;56847;51.984;5.088;2023-03-16T14:32:41;17.00;45.80
69626;DHT22;56847;51.984;5.088;2023-03-16T14:35:20;17.00;46.00
69626;DHT22;56847;51.984;5.088;2023-03-16T14:37:47;17.00;45.50
69626;DHT22;56847;51.984;5.088;2023-03-16T14:40:29;16.90;45.10
69626;DHT22;56847;51.984;5.088;2023-03-16T14:43:00;16.90;45.40
69626;DHT22;56847;51.984;5.088;2023-03-16T14:45:33;16.90;45.90
69626;DHT22;56847;51.984;5.088;2023-03-16T14:48:09;16.90;46.20
69626;DHT22;56847;51.984;5.088;2023-03-16T14:50:43;16.90;45.50
69626;DHT22;56847;51.984;5.088;2023-03-16T14:53:10;16.90;45.70
69626;DHT22;56847;51.984;5.088;2023-03-16T14:55:37;16.90;44.60
69626;DHT22;56847;51.984;5.088;2023-03-16T14:58:04;16.90;45.20
69626;DHT22;56847;51.984;5.088;2023-03-16T15:00:32;16.90;45.30
69626;DHT22;56847;51.984;5.088;2023-03-16T15:03:16;16.90;45.50
69626;DHT22;56847;51.984;5.088;2023-03-16T15:05:47;17.10;45.50
69626;DHT22;56847;51.984;5.088;2023-03-16T15:08:21;17.20;45.70
69626;DHT22;56847;51.984;5.088;2023-03-16T15:10:49;17.30;45.70
69626;DHT22;56847;51.984;5.088;2023-03-16T15:13:18;17.40;45.70
69626;DHT22;56847;51.984;5.088;2023-03-16T15:16:19;17.40;45.70
69626;DHT22;56847;51.984;5.088;2023-03-16T15:18:47;17.30;44.70
69626;DHT22;56847;51.984;5.088;2023-03-16T15:21:20;17.40;44.70
69626;DHT22;56847;51.984;5.088;2023-03-16T15:23:53;17.40;44.00
69626;DHT22;56847;51.984;5.088;2023-03-16T15:26:25;17.30;43.90
69626;DHT22;56847;51.984;5.088;2023-03-16T15:28:54;17.30;44.00
69626;DHT22;56847;51.984;5.088;2023-03-16T15:31:22;17.30;44.10
69626;DHT22;56847;51.984;5.088;2023-03-16T15:33:49;17.30;44.30
69626;DHT22;56847;51.984;5.088;2023-03-16T15:36:19;17.30;43.40
69626;DHT22;56847;51.984;5.088;2023-03-16T15:38:48;17.30;43.50
69626;DHT22;56847;51.984;5.088;2023-03-16T15:41:15;17.20;43.00
69626;DHT22;56847;51.984;5.088;2023-03-16T15:43:44;17.20;43.60
69626;DHT22;56847;51.984;5.088;2023-03-16T15:46:11;17.20;43.40
69626;DHT22;56847;51.984;5.088;2023-03-16T15:48:39;17.20;43.10
69626;DHT22;56847;51.984;5.088;2023-03-16T15:51:25;17.20;43.80
69626;DHT22;56847;51.984;5.088;2023-03-16T15:54:03;17.10;43.60
69626;DHT22;56847;51.984;5.088;2023-03-16T15:56:33;17.10;43.70
69626;DHT22;56847;51.984;5.088;2023-03-16T15:59:18;17.00;43.60
69626;DHT22;56847;51.984;5.088;2023-03-16T16:01:48;16.90;43.70
69626;DHT22;56847;51.984;5.088;2023-03-16T16:04:18;16.90;44.30
69626;DHT22;56847;51.984;5.088;2023-03-16T16:06:46;16.90;44.10
69626;DHT22;56847;51.984;5.088;2023-03-16T16:09:13;16.90;44.40
69626;DHT22;56847;51.984;5.088;2023-03-16T16:11:41;16.90;44.80
69626;DHT22;56847;51.984;5.088;2023-03-16T16:14:15;17.00;45.10
69626;DHT22;56847;51.984;5.088;2023-03-16T16:16:44;17.00;45.20
69626;DHT22;56847;51.984;5.088;2023-03-16T16:19:14;17.10;45.10
69626;DHT22;56847;51.984;5.088;2023-03-16T16:21:42;17.20;45.50
69626;DHT22;56847;51.984;5.088;2023-03-16T16:24:09;17.20;45.40
69626;DHT22;56847;51.984;5.088;2023-03-16T16:26:43;17.20;45.60
69626;DHT22;56847;51.984;5.088;2023-03-16T16:29:26;17.30;45.90
69626;DHT22;56847;51.984;5.088;2023-03-16T16:31:55;17.40;46.20
69626;DHT22;56847;51.984;5.088;2023-03-16T16:34:23;17.50;46.60
69626;DHT22;56847;51.984;5.088;2023-03-16T16:36:52;17.50;46.10
69626;DHT22;56847;51.984;5.088;2023-03-16T16:39:20;17.60;45.80
69626;DHT22;56847;51.984;5.088;2023-03-16T16:41:49;17.60;45.20
69626;DHT22;56847;51.984;5.088;2023-03-16T16:44:28;17.50;45.50
69626;DHT22;56847;51.984;5.088;2023-03-16T16:47:00;17.50;45.50
69626;DHT22;56847;51.984;5.088;2023-03-16T16:49:29;17.50;45.50
69626;DHT22;56847;51.984;5.088;2023-03-16T16:51:57;17.50;45.20
69626;DHT22;56847;51.984;5.088;2023-03-16T16:57:04;17.30;45.30
69626;DHT22;56847;51.984;5.088;2023-03-16T16:59:33;17.20;45.60
69626;DHT22;56847;51.984;5.088;2023-03-16T17:02:17;17.10;46.10
69626;DHT22;56847;51.984;5.088;2023-03-16T17:04:47;17.00;46.10
69626;DHT22;56847;51.984;5.088;2023-03-16T17:07:19;16.80;46.40
69626;DHT22;56847;51.984;5.088;2023-03-16T17:09:46;16.60;46.80
69626;DHT22;56847;51.984;5.088;2023-03-16T17:12:21;16.50;47.00
69626;DHT22;56847;51.984;5.088;2023-03-16T17:14:49;16.40;47.30
69626;DHT22;56847;51.984;5.088;2023-03-16T17:17:16;16.20;47.20
69626;DHT22;56847;51.984;5.088;2023-03-16T17:19:45;16.10;47.50